sensor_id;sensor_type;location;lat;lon;timestamp;temperature;humidity
31725;DHT22;18306;40.960;14.836;2022-07-06T00:00:50;21.10;99.90
31725;DHT22;18306;40.960;14.836;2022-07-06T00:03:17;21.10;99.90
31725;DHT22;18306;40.960;14.836;2022-07-06T00:05:44;21.30;99.90
31725;DHT22;18306;40.960;14.836;2022-07-06T00:08:11;21.50;99.90
31725;DHT22;18306;40.960;14.836;2022-07-06T00:10:38;21.50;99.90
31725;DHT22;18306;40.960;14.836;2022-07-06T00:13:05;21.30;99.90
31725;DHT22;18306;40.960;14.836;2022-07-06T00:15:32;21.10;99.90
31725;DHT22;18306;40.960;14.836;2022-07-06T00:17:59;21.10;99.90
31725;DHT22;18306;40.960;14.836;2022-07-06T00:20:26;21.20;99.90
31725;DHT22;18306;40.960;14.836;2022-07-06T00:22:53;21.40;99.90
31725;DHT22;18306;40.960;14.836;2022-07-06T00:25:20;21.40;99.90
31725;DHT22;18306;40.960;14.836;2022-07-06T00:27:47;21.30;99.90
31725;DHT22;18306;40.960;14.836;2022-07-06T00:30:14;21.00;99.90
31725;DHT22;18306;40.960;14.836;2022-07-06T00:32:41;21.10;99.90
31725;DHT22;18306;40.960;14.836;2022-07-06T00:35:08;21.30;99.90
31725;DHT22;18306;40.960;14.836;2022-07-06T00:37:36;21.50;99.90
31725;DHT22;18306;40.960;14.836;2022-07-06T00:40:03;21.60;99.90
31725;DHT22;18306;40.960;14.836;2022-07-06T00:42:42;21.40;99.90
31725;DHT22;18306;40.960;14.836;2022-07-06T00:45:10;21.50;99.90
31725;DHT22;18306;40.960;14.836;2022-07-06T00:47:38;21.10;99.90
31725;DHT22;18306;40.960;14.836;2022-07-06T00:50:08;20.80;99.90
31725;DHT22;18306;40.960;14.836;2022-07-06T00:52:44;20.70;99.90
31725;DHT22;18306;40.960;14.836;2022-07-06T00:55:13;20.90;99.90
31725;DHT22;18306;40.960;14.836;2022-07-06T00:57:41;20.80;99.90
31725;DHT22;18306;40.960;14.836;2022-07-06T01:00:11;20.60;99.90
31725;DHT22;18306;40.960;14.836;2022-07-06T01:02:39;20.80;99.90
31725;DHT22;18306;40.960;14.836;2022-07-06T01:05:08;21.00;99.90
31725;DHT22;18306;40.960;14.836;2022-07-06T01:07:36;21.20;99.90
31725;DHT22;18306;40.960;14.836;2022-07-06T01:10:05;21.30;99.90
31725;DHT22;18306;40.960;14.836;2022-07-06T01:12:34;21.50;99.90
31725;DHT22;18306;40.960;14.836;2022-07-06T01:15:03;21.60;99.90
31725;DHT22;18306;40.960;14.836;2022-07-06T01:17:31;21.60;99.90
31725;DHT22;18306;40.960;14.836;2022-07-06T01:20:14;21.50;99.90
31725;DHT22;18306;40.960;14.836;2022-07-06T01:22:43;21.50;99.90
31725;DHT22;18306;40.960;14.836;2022-07-06T01:25:10;21.50;99.90
31725;DHT22;18306;40.960;14.836;2022-07-06T01:27:39;21.40;99.90
31725;DHT22;18306;40.960;14.836;2022-07-06T01:30:08;21.50;99.90
31725;DHT22;18306;40.960;14.836;2022-07-06T01:32:36;21.30;99.90
31725;DHT22;18306;40.960;14.836;2022-07-06T01:35:05;21.10;99.90
31725;DHT22;18306;40.960;14.836;2022-07-06T01:37:32;21.10;99.90
31725;DHT22;18306;40.960;14.836;2022-07-06T01:40:00;21.20;99.90
31725;DHT22;18306;40.960;14.836;2022-07-06T01:42:27;21.00;99.90
31725;DHT22;18306;40.960;14.836;2022-07-06T01:44:56;20.70;99.90
31725;DHT22;18306;40.960;14.836;2022-07-06T01:47:31;20.50;99.90
31725;DHT22;18306;40.960;14.836;2022-07-06T01:50:00;20.30;99.90
31725;DHT22;18306;40.960;14.836;2022-07-06T01:52:39;20.50;99.90
31725;DHT22;18306;40.960;14.836;2022-07-06T01:55:07;20.40;99.90
31725;DHT22;18306;40.960;14.836;2022-07-06T01:57:36;20.40;99.90
31725;DHT22;18306;40.960;14.836;2022-07-06T02:00:06;20.60;99.90
31725;DHT22;18306;40.960;14.836;2022-07-06T02:02:39;20.50;99.90
31725;DHT22;18306;40.960;14.836;2022-07-06T02:05:07;20.30;99.90
31725;DHT22;18306;40.960;14.836;2022-07-06T02:07:34;20.40;99.90
31725;DHT22;18306;40.960;14.836;2022-07-06T02:10:02;20.20;99.90
31725;DHT22;18306;40.960;14.836;2022-07-06T02:12:30;20.40;99.90
31725;DHT22;18306;40.960;14.836;2022-07-06T02:14:57;20.50;99.90
31725;DHT22;18306;40.960;14.836;2022-07-06T02:17:24;20.40;99.90
31725;DHT22;18306;40.960;14.836;2022-07-06T02:19:51;20.50;99.90
31725;DHT22;18306;40.960;14.836;2022-07-06T02:22:18;20.50;99.90
31725;DHT22;18306;40.960;14.836;2022-07-06T02:24:45;20.50;99.90
31725;DHT22;18306;40.960;14.836;2022-07-06T02:27:12;20.30;99.90
31725;DHT22;18306;40.960;14.836;2022-07-06T02:29:39;20.40;99.90
31725;DHT22;18306;40.960;14.836;2022-07-06T02:32:08;20.50;99.90
31725;DHT22;18306;40.960;14.836;2022-07-06T02:34:35;20.60;99.90
31725;DHT22;18306;40.960;14.836;2022-07-06T02:37:02;20.70;99.90
31725;DHT22;18306;40.960;14.836;2022-07-06T02:39:29;20.80;99.90
31725;DHT22;18306;40.960;14.836;2022-07-06T02:41:57;20.80;99.90
31725;DHT22;18306;40.960;14.836;2022-07-06T02:44:25;20.90;99.90
31725;DHT22;18306;40.960;14.836;2022-07-06T02:46:53;21.00;99.90
31725;DHT22;18306;40.960;14.836;2022-07-06T02:49:20;21.00;99.90
31725;DHT22;18306;40.960;14.836;2022-07-06T02:51:48;21.00;99.90
31725;DHT22;18306;40.960;14.836;2022-07-06T02:54:15;21.00;99.90
31725;DHT22;18306;40.960;14.836;2022-07-06T02:56:42;20.70;99.90
31725;DHT22;18306;40.960;14.836;2022-07-06T02:59:10;20.20;99.90
31725;DHT22;18306;40.960;14.836;2022-07-06T03:01:37;20.30;99.90
31725;DHT22;18306;40.960;14.836;2022-07-06T03:04:04;20.20;99.90
31725;DHT22;18306;40.960;14.836;2022-07-06T03:06:31;20.10;99.90
31725;DHT22;18306;40.960;14.836;2022-07-06T03:08:58;20.10;99.90
31725;DHT22;18306;40.960;14.836;2022-07-06T03:11:25;20.10;99.90
31725;DHT22;18306;40.960;14.836;2022-07-06T03:13:52;20.00;99.90
31725;DHT22;18306;40.960;14.836;2022-07-06T03:16:19;19.70;99.90
31725;DHT22;18306;40.960;14.836;2022-07-06T03:18:46;19.70;99.90
31725;DHT22;18306;40.960;14.836;2022-07-06T03:21:13;19.70;99.90
31725;DHT22;18306;40.960;14.836;2022-07-06T03:23:40;20.00;99.90
31725;DHT22;18306;40.960;14.836;2022-07-06T03:26:08;20.20;99.90
31725;DHT22;18306;40.960;14.836;2022-07-06T03:28:35;20.40;99.90
31725;DHT22;18306;40.960;14.836;2022-07-06T03:31:02;20.30;99.90
31725;DHT22;18306;40.960;14.836;2022-07-06T03:33:29;20.10;99.90
31725;DHT22;18306;40.960;14.836;2022-07-06T03:35:56;20.00;99.90
31725;DHT22;18306;40.960;14.836;2022-07-06T03:38:23;19.80;99.90
31725;DHT22;18306;40.960;14.836;2022-07-06T03:40:51;19.50;99.90
31725;DHT22;18306;40.960;14.836;2022-07-06T03:43:18;19.60;99.90
31725;DHT22;18306;40.960;14.836;2022-07-06T03:45:45;19.50;99.90
31725;DHT22;18306;40.960;14.836;2022-07-06T03:48:12;19.40;99.90
31725;DHT22;18306;40.960;14.836;2022-07-06T03:50:43;19.40;99.90
31725;DHT22;18306;40.960;14.836;2022-07-06T03:53:10;19.50;99.90
31725;DHT22;18306;40.960;14.836;2022-07-06T03:55:38;19.50;99.90
31725;DHT22;18306;40.960;14.836;2022-07-06T03:58:08;19.70;99.90
31725;DHT22;18306;40.960;14.836;2022-07-06T04:00:37;20.10;99.90
31725;DHT22;18306;40.960;14.836;2022-07-06T04:03:09;20.20;99.90
31725;DHT22;18306;40.960;14.836;2022-07-06T04:05:47;20.30;99.90
31725;DHT22;18306;40.960;14.836;2022-07-06T04:08:28;20.30;99.90
31725;DHT22;18306;40.960;14.836;2022-07-06T04:11:01;20.00;99.90
31725;DHT22;18306;40.960;14.836;2022-07-06T04:13:37;19.90;99.90
31725;DHT22;18306;40.960;14.836;2022-07-06T04:16:12;19.90;99.90
31725;DHT22;18306;40.960;14.836;2022-07-06T04:18:48;19.90;99.90
31725;DHT22;18306;40.960;14.836;2022-07-06T04:21:18;20.00;99.90
31725;DHT22;18306;40.960;14.836;2022-07-06T04:23:45;20.30;99.90
31725;DHT22;18306;40.960;14.836;2022-07-06T04:26:13;20.40;99.90
31725;DHT22;18306;40.960;14.836;2022-07-06T04:28:40;20.50;99.90
31725;DHT22;18306;40.960;14.836;2022-07-06T04:31:07;20.70;99.90
31725;DHT22;18306;40.960;14.836;2022-07-06T04:33:34;20.60;99.90
31725;DHT22;18306;40.960;14.836;2022-07-06T04:36:02;20.50;99.90
31725;DHT22;18306;40.960;14.836;2022-07-06T04:38:37;20.30;99.90
31725;DHT22;18306;40.960;14.836;2022-07-06T04:41:06;20.10;99.90
31725;DHT22;18306;40.960;14.836;2022-07-06T04:43:33;20.20;99.90
31725;DHT22;18306;40.960;14.836;2022-07-06T04:46:00;20.10;99.90
31725;DHT22;18306;40.960;14.836;2022-07-06T04:48:28;20.10;99.90
31725;DHT22;18306;40.960;14.836;2022-07-06T04:50:57;20.30;99.90
31725;DHT22;18306;40.960;14.836;2022-07-06T04:53:27;20.50;99.90
31725;DHT22;18306;40.960;14.836;2022-07-06T04:55:55;20.70;99.90
31725;DHT22;18306;40.960;14.836;2022-07-06T04:58:23;20.70;99.90
31725;DHT22;18306;40.960;14.836;2022-07-06T05:00:50;20.80;99.90
31725;DHT22;18306;40.960;14.836;2022-07-06T05:03:17;20.40;99.90
31725;DHT22;18306;40.960;14.836;2022-07-06T05:05:45;20.20;99.90
31725;DHT22;18306;40.960;14.836;2022-07-06T05:08:12;20.40;99.90
31725;DHT22;18306;40.960;14.836;2022-07-06T05:10:40;20.70;99.90
31725;DHT22;18306;40.960;14.836;2022-07-06T05:13:08;20.60;99.90
31725;DHT22;18306;40.960;14.836;2022-07-06T05:15:35;20.80;99.90
31725;DHT22;18306;40.960;14.836;2022-07-06T05:18:02;21.00;99.90
31725;DHT22;18306;40.960;14.836;2022-07-06T05:20:29;21.20;99.90
31725;DHT22;18306;40.960;14.836;2022-07-06T05:22:57;21.30;99.90
31725;DHT22;18306;40.960;14.836;2022-07-06T05:25:29;21.40;99.90
31725;DHT22;18306;40.960;14.836;2022-07-06T05:27:58;21.10;99.90
31725;DHT22;18306;40.960;14.836;2022-07-06T05:30:26;21.10;99.90
31725;DHT22;18306;40.960;14.836;2022-07-06T05:32:53;21.70;99.90
31725;DHT22;18306;40.960;14.836;2022-07-06T05:35:20;21.90;99.90
31725;DHT22;18306;40.960;14.836;2022-07-06T05:37:47;22.30;99.90
31725;DHT22;18306;40.960;14.836;2022-07-06T05:40:14;22.70;99.90
31725;DHT22;18306;40.960;14.836;2022-07-06T05:42:42;23.20;99.90
31725;DHT22;18306;40.960;14.836;2022-07-06T05:45:09;23.60;99.90
31725;DHT22;18306;40.960;14.836;2022-07-06T05:47:36;23.80;99.90
31725;DHT22;18306;40.960;14.836;2022-07-06T05:50:21;23.80;99.90
31725;DHT22;18306;40.960;14.836;2022-07-06T05:53:00;25.10;99.90
31725;DHT22;18306;40.960;14.836;2022-07-06T05:55:30;26.20;99.90
31725;DHT22;18306;40.960;14.836;2022-07-06T05:57:59;28.70;96.50
31725;DHT22;18306;40.960;14.836;2022-07-06T06:00:28;29.80;94.50
31725;DHT22;18306;40.960;14.836;2022-07-06T06:03:00;30.60;93.20
31725;DHT22;18306;40.960;14.836;2022-07-06T06:05:27;31.40;92.30
31725;DHT22;18306;40.960;14.836;2022-07-06T06:07:59;31.50;90.80
31725;DHT22;18306;40.960;14.836;2022-07-06T06:10:27;31.40;91.90
31725;DHT22;18306;40.960;14.836;2022-07-06T06:12:57;31.30;91.40
31725;DHT22;18306;40.960;14.836;2022-07-06T06:15:26;31.20;91.60
31725;DHT22;18306;40.960;14.836;2022-07-06T06:17:53;31.30;91.10
31725;DHT22;18306;40.960;14.836;2022-07-06T06:20:20;31.60;89.80
31725;DHT22;18306;40.960;14.836;2022-07-06T06:22:52;32.10;90.00
31725;DHT22;18306;40.960;14.836;2022-07-06T06:25:30;32.50;88.00
31725;DHT22;18306;40.960;14.836;2022-07-06T06:27:57;33.10;88.30
31725;DHT22;18306;40.960;14.836;2022-07-06T06:30:25;33.50;87.20
31725;DHT22;18306;40.960;14.836;2022-07-06T06:33:04;33.80;85.50
31725;DHT22;18306;40.960;14.836;2022-07-06T06:35:31;34.10;85.00
31725;DHT22;18306;40.960;14.836;2022-07-06T06:37:58;33.20;86.80
31725;DHT22;18306;40.960;14.836;2022-07-06T06:40:25;31.60;90.10
31725;DHT22;18306;40.960;14.836;2022-07-06T06:42:52;30.30;92.20
31725;DHT22;18306;40.960;14.836;2022-07-06T06:45:19;29.60;93.10
31725;DHT22;18306;40.960;14.836;2022-07-06T06:47:46;28.90;93.00
31725;DHT22;18306;40.960;14.836;2022-07-06T06:50:16;27.90;94.30
31725;DHT22;18306;40.960;14.836;2022-07-06T06:52:50;28.00;94.60
31725;DHT22;18306;40.960;14.836;2022-07-06T06:55:17;28.00;94.70
31725;DHT22;18306;40.960;14.836;2022-07-06T06:57:45;27.90;94.10
31725;DHT22;18306;40.960;14.836;2022-07-06T07:00:13;27.80;95.00
31725;DHT22;18306;40.960;14.836;2022-07-06T07:02:40;28.00;95.30
31725;DHT22;18306;40.960;14.836;2022-07-06T07:05:08;28.00;95.30
31725;DHT22;18306;40.960;14.836;2022-07-06T07:07:35;28.10;95.30
31725;DHT22;18306;40.960;14.836;2022-07-06T07:10:04;28.10;95.60
31725;DHT22;18306;40.960;14.836;2022-07-06T07:12:33;28.20;95.70
31725;DHT22;18306;40.960;14.836;2022-07-06T07:15:00;28.30;95.40
31725;DHT22;18306;40.960;14.836;2022-07-06T07:17:28;28.20;95.60
31725;DHT22;18306;40.960;14.836;2022-07-06T07:19:55;28.00;95.70
31725;DHT22;18306;40.960;14.836;2022-07-06T07:22:24;28.30;96.20
31725;DHT22;18306;40.960;14.836;2022-07-06T07:24:51;28.50;95.80
31725;DHT22;18306;40.960;14.836;2022-07-06T07:27:18;28.60;95.70
31725;DHT22;18306;40.960;14.836;2022-07-06T07:29:45;28.90;95.40
31725;DHT22;18306;40.960;14.836;2022-07-06T07:32:13;28.60;94.90
31725;DHT22;18306;40.960;14.836;2022-07-06T07:34:39;28.20;95.70
31725;DHT22;18306;40.960;14.836;2022-07-06T07:37:07;28.20;96.00
31725;DHT22;18306;40.960;14.836;2022-07-06T07:39:34;28.20;95.60
31725;DHT22;18306;40.960;14.836;2022-07-06T07:42:01;28.70;95.90
31725;DHT22;18306;40.960;14.836;2022-07-06T07:44:28;28.80;95.60
31725;DHT22;18306;40.960;14.836;2022-07-06T07:46:56;28.60;95.60
31725;DHT22;18306;40.960;14.836;2022-07-06T07:49:27;28.60;96.20
31725;DHT22;18306;40.960;14.836;2022-07-06T07:51:54;28.70;96.20
31725;DHT22;18306;40.960;14.836;2022-07-06T07:54:22;29.00;96.00
31725;DHT22;18306;40.960;14.836;2022-07-06T07:56:50;29.40;97.10
31725;DHT22;18306;40.960;14.836;2022-07-06T07:59:17;29.70;95.10
31725;DHT22;18306;40.960;14.836;2022-07-06T08:01:47;29.80;94.70
31725;DHT22;18306;40.960;14.836;2022-07-06T08:04:15;30.50;94.20
31725;DHT22;18306;40.960;14.836;2022-07-06T08:06:44;32.00;92.20
31725;DHT22;18306;40.960;14.836;2022-07-06T08:09:15;32.80;91.30
31725;DHT22;18306;40.960;14.836;2022-07-06T08:11:44;33.20;90.60
31725;DHT22;18306;40.960;14.836;2022-07-06T08:14:12;33.10;90.60
31725;DHT22;18306;40.960;14.836;2022-07-06T08:16:41;31.90;91.50
31725;DHT22;18306;40.960;14.836;2022-07-06T08:19:08;31.60;91.60
31725;DHT22;18306;40.960;14.836;2022-07-06T08:21:36;31.70;91.80
31725;DHT22;18306;40.960;14.836;2022-07-06T08:24:05;31.30;91.80
31725;DHT22;18306;40.960;14.836;2022-07-06T08:26:34;31.30;91.90
31725;DHT22;18306;40.960;14.836;2022-07-06T08:29:01;31.40;91.80
31725;DHT22;18306;40.960;14.836;2022-07-06T08:31:28;31.40;91.50
31725;DHT22;18306;40.960;14.836;2022-07-06T08:33:55;31.10;91.10
31725;DHT22;18306;40.960;14.836;2022-07-06T08:36:23;31.00;91.30
31725;DHT22;18306;40.960;14.836;2022-07-06T08:38:50;31.10;92.00
31725;DHT22;18306;40.960;14.836;2022-07-06T08:41:18;31.10;90.90
31725;DHT22;18306;40.960;14.836;2022-07-06T08:43:48;30.90;91.80
31725;DHT22;18306;40.960;14.836;2022-07-06T08:46:16;31.00;91.50
31725;DHT22;18306;40.960;14.836;2022-07-06T08:48:50;31.00;91.40
31725;DHT22;18306;40.960;14.836;2022-07-06T08:51:28;31.00;90.90
31725;DHT22;18306;40.960;14.836;2022-07-06T08:53:59;30.90;91.10
31725;DHT22;18306;40.960;14.836;2022-07-06T08:56:28;31.00;91.30
31725;DHT22;18306;40.960;14.836;2022-07-06T08:58:55;31.10;91.40
31725;DHT22;18306;40.960;14.836;2022-07-06T09:01:23;31.20;91.60
31725;DHT22;18306;40.960;14.836;2022-07-06T09:03:50;31.10;91.80
31725;DHT22;18306;40.960;14.836;2022-07-06T09:06:28;31.10;91.70
31725;DHT22;18306;40.960;14.836;2022-07-06T09:09:06;31.00;91.30
31725;DHT22;18306;40.960;14.836;2022-07-06T09:11:47;30.90;92.10
31725;DHT22;18306;40.960;14.836;2022-07-06T09:14:21;31.00;92.20
31725;DHT22;18306;40.960;14.836;2022-07-06T09:17:01;31.10;91.10
31725;DHT22;18306;40.960;14.836;2022-07-06T09:19:44;31.10;91.00
31725;DHT22;18306;40.960;14.836;2022-07-06T09:22:28;31.10;91.00
31725;DHT22;18306;40.960;14.836;2022-07-06T09:25:16;30.90;90.00
31725;DHT22;18306;40.960;14.836;2022-07-06T09:28:01;30.90;91.60
31725;DHT22;18306;40.960;14.836;2022-07-06T09:30:35;30.70;91.90
31725;DHT22;18306;40.960;14.836;2022-07-06T09:33:07;30.90;91.80
31725;DHT22;18306;40.960;14.836;2022-07-06T09:35:38;31.10;91.40
31725;DHT22;18306;40.960;14.836;2022-07-06T09:40:42;31.00;90.90
31725;DHT22;18306;40.960;14.836;2022-07-06T09:43:18;31.30;91.20
31725;DHT22;18306;40.960;14.836;2022-07-06T09:45:54;31.20;87.90
31725;DHT22;18306;40.960;14.836;2022-07-06T09:48:24;31.00;90.20
31725;DHT22;18306;40.960;14.836;2022-07-06T09:50:54;31.10;88.50
31725;DHT22;18306;40.960;14.836;2022-07-06T09:53:23;31.30;89.60
31725;DHT22;18306;40.960;14.836;2022-07-06T09:55:55;31.30;87.70
31725;DHT22;18306;40.960;14.836;2022-07-06T09:58:22;31.20;89.40
31725;DHT22;18306;40.960;14.836;2022-07-06T10:00:50;31.20;87.30
31725;DHT22;18306;40.960;14.836;2022-07-06T10:03:18;31.20;88.20
31725;DHT22;18306;40.960;14.836;2022-07-06T10:05:47;31.30;87.70
31725;DHT22;18306;40.960;14.836;2022-07-06T10:08:15;31.40;89.10
31725;DHT22;18306;40.960;14.836;2022-07-06T10:10:43;30.60;90.20
31725;DHT22;18306;40.960;14.836;2022-07-06T10:13:12;30.50;91.00
31725;DHT22;18306;40.960;14.836;2022-07-06T10:15:41;31.00;88.50
31725;DHT22;18306;40.960;14.836;2022-07-06T10:18:10;31.30;89.50
31725;DHT22;18306;40.960;14.836;2022-07-06T10:20:38;31.50;87.80
31725;DHT22;18306;40.960;14.836;2022-07-06T10:23:08;31.60;87.00
31725;DHT22;18306;40.960;14.836;2022-07-06T10:25:35;31.40;88.80
31725;DHT22;18306;40.960;14.836;2022-07-06T10:28:06;31.10;90.10
31725;DHT22;18306;40.960;14.836;2022-07-06T10:30:41;31.50;86.80
31725;DHT22;18306;40.960;14.836;2022-07-06T10:33:11;31.80;87.50
31725;DHT22;18306;40.960;14.836;2022-07-06T10:35:41;31.70;85.50
31725;DHT22;18306;40.960;14.836;2022-07-06T10:38:10;31.80;86.00
31725;DHT22;18306;40.960;14.836;2022-07-06T10:40:40;31.40;88.40
31725;DHT22;18306;40.960;14.836;2022-07-06T10:43:32;31.60;88.80
31725;DHT22;18306;40.960;14.836;2022-07-06T10:46:06;31.70;85.00
31725;DHT22;18306;40.960;14.836;2022-07-06T10:48:46;31.80;85.90
31725;DHT22;18306;40.960;14.836;2022-07-06T10:51:23;31.80;88.30
31725;DHT22;18306;40.960;14.836;2022-07-06T10:54:01;31.60;87.80
31725;DHT22;18306;40.960;14.836;2022-07-06T10:56:39;31.80;86.30
31725;DHT22;18306;40.960;14.836;2022-07-06T10:59:17;32.00;86.40
31725;DHT22;18306;40.960;14.836;2022-07-06T11:02:13;32.10;87.90
31725;DHT22;18306;40.960;14.836;2022-07-06T11:04:46;32.30;88.70
31725;DHT22;18306;40.960;14.836;2022-07-06T11:07:15;32.30;88.10
31725;DHT22;18306;40.960;14.836;2022-07-06T11:09:56;32.30;88.20
31725;DHT22;18306;40.960;14.836;2022-07-06T11:12:26;32.20;88.50
31725;DHT22;18306;40.960;14.836;2022-07-06T11:14:54;31.80;88.80
31725;DHT22;18306;40.960;14.836;2022-07-06T11:17:23;31.90;84.80
31725;DHT22;18306;40.960;14.836;2022-07-06T11:20:08;31.90;83.50
31725;DHT22;18306;40.960;14.836;2022-07-06T11:22:37;32.00;85.60
31725;DHT22;18306;40.960;14.836;2022-07-06T11:25:06;32.20;84.60
31725;DHT22;18306;40.960;14.836;2022-07-06T11:27:37;32.40;83.00
31725;DHT22;18306;40.960;14.836;2022-07-06T11:30:06;32.60;83.00
31725;DHT22;18306;40.960;14.836;2022-07-06T11:32:39;32.50;85.70
31725;DHT22;18306;40.960;14.836;2022-07-06T11:35:06;32.40;84.80
31725;DHT22;18306;40.960;14.836;2022-07-06T11:37:36;32.50;86.70
31725;DHT22;18306;40.960;14.836;2022-07-06T11:40:07;32.70;85.40
31725;DHT22;18306;40.960;14.836;2022-07-06T11:42:35;32.80;84.70
31725;DHT22;18306;40.960;14.836;2022-07-06T11:45:03;32.80;84.00
31725;DHT22;18306;40.960;14.836;2022-07-06T11:47:32;32.80;82.10
31725;DHT22;18306;40.960;14.836;2022-07-06T11:49:59;32.80;80.40
31725;DHT22;18306;40.960;14.836;2022-07-06T11:52:30;32.70;83.60
31725;DHT22;18306;40.960;14.836;2022-07-06T11:54:58;32.20;85.80
31725;DHT22;18306;40.960;14.836;2022-07-06T11:57:32;32.30;87.10
31725;DHT22;18306;40.960;14.836;2022-07-06T12:00:02;31.70;86.50
31725;DHT22;18306;40.960;14.836;2022-07-06T12:02:39;31.60;87.20
31725;DHT22;18306;40.960;14.836;2022-07-06T12:05:06;31.50;88.90
31725;DHT22;18306;40.960;14.836;2022-07-06T12:07:35;31.10;87.60
31725;DHT22;18306;40.960;14.836;2022-07-06T12:10:03;31.00;89.40
31725;DHT22;18306;40.960;14.836;2022-07-06T12:12:33;31.00;86.50
31725;DHT22;18306;40.960;14.836;2022-07-06T12:15:00;31.20;87.80
31725;DHT22;18306;40.960;14.836;2022-07-06T12:17:32;31.20;87.50
31725;DHT22;18306;40.960;14.836;2022-07-06T12:19:59;31.10;89.30
31725;DHT22;18306;40.960;14.836;2022-07-06T12:22:26;31.60;86.60
31725;DHT22;18306;40.960;14.836;2022-07-06T12:24:53;32.40;84.50
31725;DHT22;18306;40.960;14.836;2022-07-06T12:27:20;32.50;82.70
31725;DHT22;18306;40.960;14.836;2022-07-06T12:29:48;32.90;80.80
31725;DHT22;18306;40.960;14.836;2022-07-06T12:32:19;33.00;84.80
31725;DHT22;18306;40.960;14.836;2022-07-06T12:34:46;33.00;80.60
31725;DHT22;18306;40.960;14.836;2022-07-06T12:37:13;33.10;82.00
31725;DHT22;18306;40.960;14.836;2022-07-06T12:39:45;32.40;83.70
31725;DHT22;18306;40.960;14.836;2022-07-06T12:42:17;32.30;85.30
31725;DHT22;18306;40.960;14.836;2022-07-06T12:44:49;32.40;85.00
31725;DHT22;18306;40.960;14.836;2022-07-06T12:47:23;32.80;82.80
31725;DHT22;18306;40.960;14.836;2022-07-06T12:50:10;32.40;84.30
31725;DHT22;18306;40.960;14.836;2022-07-06T12:52:38;32.80;80.90
31725;DHT22;18306;40.960;14.836;2022-07-06T12:55:08;33.20;80.40
31725;DHT22;18306;40.960;14.836;2022-07-06T12:57:47;33.40;81.70
31725;DHT22;18306;40.960;14.836;2022-07-06T13:00:16;33.30;80.30
31725;DHT22;18306;40.960;14.836;2022-07-06T13:02:48;33.00;83.20
31725;DHT22;18306;40.960;14.836;2022-07-06T13:05:58;33.20;77.00
31725;DHT22;18306;40.960;14.836;2022-07-06T13:08:25;33.40;75.40
31725;DHT22;18306;40.960;14.836;2022-07-06T13:10:55;33.60;74.60
31725;DHT22;18306;40.960;14.836;2022-07-06T13:13:23;33.80;77.10
31725;DHT22;18306;40.960;14.836;2022-07-06T13:15:53;33.00;81.00
31725;DHT22;18306;40.960;14.836;2022-07-06T13:18:20;32.40;80.90
31725;DHT22;18306;40.960;14.836;2022-07-06T13:20:52;32.60;81.10
31725;DHT22;18306;40.960;14.836;2022-07-06T13:23:20;32.80;82.30
31725;DHT22;18306;40.960;14.836;2022-07-06T13:25:47;33.00;76.80
31725;DHT22;18306;40.960;14.836;2022-07-06T13:28:15;33.00;79.20
31725;DHT22;18306;40.960;14.836;2022-07-06T13:30:46;32.10;80.80
31725;DHT22;18306;40.960;14.836;2022-07-06T13:33:13;32.10;79.10
31725;DHT22;18306;40.960;14.836;2022-07-06T13:35:40;32.40;78.20
31725;DHT22;18306;40.960;14.836;2022-07-06T13:38:11;32.50;79.20
31725;DHT22;18306;40.960;14.836;2022-07-06T13:40:38;32.20;79.10
31725;DHT22;18306;40.960;14.836;2022-07-06T13:43:09;32.50;80.30
31725;DHT22;18306;40.960;14.836;2022-07-06T13:45:36;32.60;79.90
31725;DHT22;18306;40.960;14.836;2022-07-06T13:48:03;32.20;80.50
31725;DHT22;18306;40.960;14.836;2022-07-06T13:50:34;31.70;82.80
31725;DHT22;18306;40.960;14.836;2022-07-06T13:53:01;31.80;87.30
31725;DHT22;18306;40.960;14.836;2022-07-06T13:55:30;30.40;91.40
31725;DHT22;18306;40.960;14.836;2022-07-06T13:57:58;29.10;93.90
31725;DHT22;18306;40.960;14.836;2022-07-06T14:00:25;28.80;94.50
31725;DHT22;18306;40.960;14.836;2022-07-06T14:02:52;28.90;94.80
31725;DHT22;18306;40.960;14.836;2022-07-06T14:05:30;29.00;94.40
31725;DHT22;18306;40.960;14.836;2022-07-06T14:07:57;28.80;93.90
31725;DHT22;18306;40.960;14.836;2022-07-06T14:10:24;28.70;93.90
31725;DHT22;18306;40.960;14.836;2022-07-06T14:12:51;28.60;94.10
31725;DHT22;18306;40.960;14.836;2022-07-06T14:15:22;28.90;95.20
31725;DHT22;18306;40.960;14.836;2022-07-06T14:17:49;29.20;94.00
31725;DHT22;18306;40.960;14.836;2022-07-06T14:20:16;29.60;94.00
31725;DHT22;18306;40.960;14.836;2022-07-06T14:22:45;29.70;93.50
31725;DHT22;18306;40.960;14.836;2022-07-06T14:25:12;29.80;94.00
31725;DHT22;18306;40.960;14.836;2022-07-06T14:28:17;29.40;94.20
31725;DHT22;18306;40.960;14.836;2022-07-06T14:35:12;29.40;93.10
31725;DHT22;18306;40.960;14.836;2022-07-06T14:37:39;29.70;94.10
31725;DHT22;18306;40.960;14.836;2022-07-06T14:43:42;29.70;95.20
31725;DHT22;18306;40.960;14.836;2022-07-06T14:46:09;30.10;95.30
31725;DHT22;18306;40.960;14.836;2022-07-06T14:48:36;30.10;93.80
31725;DHT22;18306;40.960;14.836;2022-07-06T14:51:03;30.10;94.90
31725;DHT22;18306;40.960;14.836;2022-07-06T14:53:30;29.90;95.00
31725;DHT22;18306;40.960;14.836;2022-07-06T14:55:57;30.00;94.00
31725;DHT22;18306;40.960;14.836;2022-07-06T14:58:25;29.80;94.20
31725;DHT22;18306;40.960;14.836;2022-07-06T15:05:36;29.20;95.80
31725;DHT22;18306;40.960;14.836;2022-07-06T15:08:05;28.40;98.30
31725;DHT22;18306;40.960;14.836;2022-07-06T15:15:12;27.90;99.20
31725;DHT22;18306;40.960;14.836;2022-07-06T15:17:39;27.30;98.70
31725;DHT22;18306;40.960;14.836;2022-07-06T15:20:06;26.40;99.90
31725;DHT22;18306;40.960;14.836;2022-07-06T15:22:33;25.80;99.90
31725;DHT22;18306;40.960;14.836;2022-07-06T15:25:03;25.70;99.90
31725;DHT22;18306;40.960;14.836;2022-07-06T15:27:30;25.70;99.90
31725;DHT22;18306;40.960;14.836;2022-07-06T15:29:57;25.80;99.90
31725;DHT22;18306;40.960;14.836;2022-07-06T15:32:24;25.60;99.90
31725;DHT22;18306;40.960;14.836;2022-07-06T15:34:51;26.00;99.90
31725;DHT22;18306;40.960;14.836;2022-07-06T15:37:21;26.20;99.40
31725;DHT22;18306;40.960;14.836;2022-07-06T15:39:48;26.60;99.10
31725;DHT22;18306;40.960;14.836;2022-07-06T15:42:15;27.20;99.00
31725;DHT22;18306;40.960;14.836;2022-07-06T15:44:42;27.50;98.40
31725;DHT22;18306;40.960;14.836;2022-07-06T15:47:09;27.50;97.90
31725;DHT22;18306;40.960;14.836;2022-07-06T15:49:36;27.50;97.60